createdAt,value
2018-04-19T03:21:54.079Z,65.14
2018-04-19T03:22:54.074Z,65.90
2018-04-19T03:23:54.119Z,66.00
2018-04-19T03:24:54.022Z,65.45
2018-04-19T03:25:54.028Z,64.22
2018-04-19T03:26:54.016Z,63.67
2018-04-19T03:27:54.016Z,62.43
2018-04-19T03:28:54.046Z,62.71
2018-04-19T03:29:54.039Z,64.02
2018-04-19T03:30:54.014Z,63.45
2018-04-19T03:31:54.019Z,64.15
2018-04-19T03:32:54.031Z,63.16
2018-04-19T03:33:54.058Z,64.22
2018-04-19T03:34:53.993Z,62.77
2018-04-19T03:35:53.990Z,63.67
2018-04-19T03:36:53.992Z,63.19
2018-04-19T03:37:54.074Z,63.54
2018-04-19T03:38:54.017Z,65.04
2018-04-19T03:39:54.000Z,65.55
2018-04-19T03:40:53.980Z,66.38
2018-04-19T03:41:54.004Z,66.86
2018-04-19T03:42:54.038Z,66.67
2018-04-19T03:43:53.984Z,67.24
2018-04-19T03:44:53.997Z,67.97
2018-04-19T03:45:54.016Z,65.90
2018-04-19T03:46:54.023Z,65.45
2018-04-19T03:47:54.041Z,65.74
2018-04-19T03:48:54.054Z,66.47
2018-04-19T03:49:53.983Z,66.96
2018-04-19T03:50:54.016Z,67.30
2018-04-19T03:51:53.981Z,66.96
2018-04-19T03:52:53.984Z,66.38
2018-04-19T03:53:54.004Z,65.42
2018-04-19T03:54:54.105Z,65.61
2018-04-19T03:55:53.973Z,66.28
2018-04-19T03:56:53.982Z,66.73
2018-04-19T03:57:54.000Z,67.24
2018-04-19T03:58:53.996Z,66.96
2018-04-19T03:59:53.999Z,66.19
2018-04-19T04:01:02.709Z,65.90
2018-04-19T04:02:47.502Z,65.08
2018-04-19T04:05:08.544Z,63.06
2018-04-19T04:06:08.505Z,65.42
2018-04-19T04:07:08.541Z,65.42
2018-04-19T04:08:08.509Z,65.71
2018-04-19T04:09:08.515Z,64.98
2018-04-19T04:10:08.446Z,65.61
2018-04-19T04:11:08.516Z,65.81
2018-04-19T04:12:08.453Z,66.00
2018-04-19T04:13:08.448Z,66.73
2018-04-19T04:14:08.541Z,65.52
2018-04-19T04:15:08.461Z,65.90
2018-04-19T04:16:08.464Z,65.81
2018-04-19T04:17:08.474Z,66.92
2018-04-19T04:18:08.498Z,68.07
2018-04-19T04:19:08.461Z,67.69
2018-04-19T04:20:08.430Z,69.27
2018-04-19T04:21:08.430Z,70.52
2018-04-19T04:22:08.432Z,70.23
2018-04-19T04:23:08.434Z,71.00
2018-04-19T04:24:08.423Z,70.04
2018-04-19T04:25:08.433Z,70.42
2018-04-19T04:26:08.460Z,71.00
2018-04-19T04:27:08.519Z,71.47
2018-04-19T04:28:08.449Z,69.66
2018-04-19T04:29:08.608Z,69.79
2018-04-19T04:30:08.451Z,68.99
2018-04-19T04:31:08.539Z,68.35
2018-04-19T04:32:08.461Z,65.90
2018-04-19T04:33:08.436Z,66.25
2018-04-19T04:34:08.418Z,66.38
2018-04-19T04:35:08.439Z,66.73
2018-04-19T04:36:08.409Z,66.38
2018-04-19T04:37:08.497Z,66.38
2018-04-19T04:38:08.420Z,67.69
2018-04-19T04:39:08.410Z,67.59
2018-04-19T04:40:08.456Z,67.30
2018-04-19T04:41:08.536Z,66.86
2018-04-19T04:42:08.539Z,66.54
2018-04-19T04:43:08.458Z,67.05
2018-04-19T04:44:08.438Z,67.59
2018-04-19T04:45:08.444Z,67.97
2018-04-19T04:46:08.439Z,68.07
2018-04-19T04:47:08.423Z,66.47
2018-04-19T04:48:08.403Z,65.55
2018-04-19T04:49:08.428Z,65.61
2018-04-19T04:50:08.398Z,65.42
2018-04-19T04:51:08.428Z,67.59
2018-04-19T04:52:08.402Z,68.55
2018-04-19T04:53:08.402Z,66.47
2018-04-19T04:54:08.646Z,66.00
2018-04-19T04:55:08.421Z,66.38
2018-04-19T04:56:08.416Z,66.09
2018-04-19T04:57:08.443Z,65.65
2018-04-19T04:58:08.971Z,64.88
2018-04-19T04:59:08.448Z,65.74
2018-04-19T05:00:08.503Z,65.55
2018-04-19T05:01:08.393Z,65.08
2018-04-19T05:02:08.419Z,65.08
2018-04-19T05:03:08.396Z,65.71
2018-04-19T05:04:08.390Z,66.86
2018-04-19T05:05:08.394Z,66.86
2018-04-19T05:06:08.397Z,65.94
2018-04-19T05:07:08.472Z,66.13
2018-04-19T05:08:08.409Z,66.32
2018-04-19T05:09:08.449Z,66.57
2018-04-19T05:10:08.513Z,66.61
2018-04-19T05:11:08.405Z,65.55
2018-04-19T05:12:08.433Z,65.30
2018-04-19T05:13:17.148Z,64.15
2018-04-19T05:15:01.930Z,64.05
2018-04-19T05:16:01.824Z,64.15
2018-04-19T05:17:01.821Z,64.53
2018-04-19T05:18:01.829Z,63.99
2018-04-19T05:19:01.915Z,62.84
2018-04-19T05:20:02.044Z,63.60
2018-04-19T05:21:01.958Z,63.70
2018-04-19T05:22:01.957Z,61.72
2018-04-19T05:23:01.911Z,61.18
2018-04-19T05:24:01.857Z,58.62
2018-04-19T05:25:01.881Z,56.73
2018-04-19T05:26:01.979Z,56.08
2018-04-19T05:27:01.901Z,54.55
2018-04-19T05:28:01.884Z,53.61
2018-04-19T05:29:01.890Z,54.09
2018-04-19T05:30:01.924Z,54.09
2018-04-19T05:31:01.910Z,53.45
2018-04-19T05:32:01.957Z,53.23
2018-04-19T05:33:01.937Z,52.29
2018-04-19T05:34:01.972Z,51.93
2018-04-19T05:35:01.928Z,51.74
2018-04-19T05:36:02.007Z,52.12
2018-04-19T05:37:01.944Z,52.22
2018-04-19T05:38:02.002Z,51.45
2018-04-19T05:39:02.016Z,51.55
2018-04-19T05:40:02.011Z,51.29
2018-04-19T05:41:01.988Z,51.07
2018-04-19T05:42:02.098Z,51.35
2018-04-19T05:43:02.041Z,51.55
2018-04-19T05:44:02.121Z,53.16
2018-04-19T05:45:02.114Z,53.70
2018-04-19T05:46:02.073Z,53.70
2018-04-19T05:47:02.144Z,54.00
2018-04-19T05:48:02.089Z,53.35
2018-04-19T05:49:02.106Z,52.44
2018-04-19T05:50:02.204Z,50.61
2018-04-19T05:51:02.157Z,49.10
2018-04-19T05:52:02.181Z,48.54
2018-04-19T05:53:02.134Z,46.93
2018-04-19T05:54:02.229Z,46.73
2018-04-19T05:55:02.304Z,46.37
2018-04-19T05:56:02.275Z,45.51
2018-04-19T05:57:02.300Z,45.03
2018-04-19T05:58:02.215Z,45.21
2018-04-19T05:59:02.317Z,44.95
2018-04-19T06:00:02.356Z,45.60
2018-04-19T06:01:02.323Z,45.14
2018-04-19T06:02:02.457Z,43.81
2018-04-19T06:03:02.441Z,43.24
2018-04-19T06:04:02.374Z,43.43
2018-04-19T06:05:02.453Z,42.56
2018-04-19T06:06:02.367Z,42.77
2018-04-19T06:07:02.553Z,42.19
2018-04-19T06:08:02.423Z,42.68
2018-04-19T06:09:02.724Z,42.77
2018-04-19T06:10:02.536Z,41.91
2018-04-19T06:11:02.547Z,42.36
2018-04-19T06:12:02.454Z,43.35
2018-04-19T06:13:02.420Z,42.97
2018-04-19T06:14:02.466Z,42.85
2018-04-19T06:15:02.436Z,44.90
2018-04-19T06:16:02.507Z,46.62
2018-04-19T06:17:02.548Z,48.49
2018-04-19T06:18:03.320Z,50.13
2018-04-19T06:19:02.563Z,51.33
2018-04-19T06:20:02.550Z,52.00
2018-04-19T06:21:02.542Z,53.03
2018-04-19T06:22:02.738Z,53.80
2018-04-19T06:23:02.612Z,54.47
2018-04-19T06:24:02.609Z,54.67
2018-04-19T06:25:02.586Z,54.77
2018-04-19T06:26:02.604Z,54.74
2018-04-19T06:27:02.615Z,55.60
2018-04-19T06:28:02.625Z,55.69
2018-04-19T06:29:02.622Z,55.12
2018-04-19T06:30:02.670Z,56.08
2018-04-19T06:31:02.613Z,55.89
2018-04-19T06:32:02.641Z,55.51
2018-04-19T06:33:02.598Z,55.77
2018-04-19T06:34:02.629Z,57.01
2018-04-19T06:35:11.390Z,57.62
2018-04-19T06:36:56.063Z,56.76
2018-04-19T06:39:18.300Z,58.10
2018-04-19T06:40:18.367Z,56.63
2018-04-19T06:41:18.292Z,56.73
2018-04-19T06:42:18.367Z,56.92
2018-04-19T06:44:40.833Z,57.62
2018-04-19T06:45:40.710Z,57.52
2018-04-19T06:46:40.628Z,57.21
2018-04-19T06:47:40.583Z,57.78
2018-04-19T06:48:40.578Z,57.78
2018-04-19T06:49:40.605Z,59.41
2018-04-19T06:50:40.589Z,58.64
2018-04-19T06:51:40.584Z,58.84
2018-04-19T06:52:40.564Z,58.64
2018-04-19T06:53:40.668Z,59.80
2018-04-19T06:54:40.565Z,59.89
2018-04-19T06:55:40.586Z,59.99
2018-04-19T06:56:40.610Z,60.08
2018-04-19T06:57:40.584Z,59.80
2018-04-19T06:58:40.619Z,59.70
2018-04-19T06:59:40.694Z,60.28
2018-04-19T07:00:40.618Z,60.28
2018-04-19T07:01:40.613Z,60.35
2018-04-19T07:02:40.620Z,60.18
2018-04-19T07:03:40.607Z,59.70
2018-04-19T07:04:40.619Z,60.38
2018-04-19T07:05:40.642Z,60.47
2018-04-19T07:06:43.369Z,60.18
2018-04-19T07:07:40.639Z,59.70
2018-04-19T07:08:40.703Z,60.18
2018-04-19T07:09:40.629Z,59.32
2018-04-19T07:10:40.612Z,60.28
2018-04-19T07:11:40.630Z,59.86
2018-04-19T07:12:40.640Z,60.08
2018-04-19T07:13:40.657Z,60.18
2018-04-19T07:14:42.387Z,59.41
2018-04-19T07:15:40.627Z,60.02
2018-04-19T07:16:40.627Z,59.16
2018-04-19T07:17:40.628Z,58.67
2018-04-19T07:18:40.629Z,59.41
2018-04-19T07:19:42.394Z,59.22
2018-04-19T07:20:40.634Z,58.84
2018-04-19T07:21:40.653Z,59.34
2018-04-19T07:22:40.656Z,58.74
2018-04-19T07:23:40.663Z,58.36
2018-04-19T07:24:42.407Z,58.48
2018-04-19T07:25:40.649Z,58.39
2018-04-19T07:26:40.674Z,58.39
2018-04-19T07:27:40.680Z,58.77
2018-04-19T07:28:40.699Z,58.29
2018-04-19T07:29:40.660Z,58.77
2018-04-19T07:30:40.667Z,57.62
2018-04-19T07:31:40.677Z,58.48
2018-04-19T07:32:40.685Z,58.20
2018-04-19T07:33:40.671Z,58.58
2018-04-19T07:36:01.834Z,58.20
2018-04-19T07:38:22.780Z,58.87
2018-04-19T07:39:22.779Z,58.89
2018-04-19T07:40:22.793Z,58.39
2018-04-19T07:41:22.885Z,58.48
2018-04-19T07:42:22.789Z,60.31
2018-04-19T07:43:22.796Z,59.38
2018-04-19T07:44:22.804Z,58.48
2018-04-19T07:45:22.805Z,58.67
2018-04-19T07:46:22.803Z,58.96
2018-04-19T07:47:22.798Z,59.28
2018-04-19T07:48:22.796Z,59.47
2018-04-19T07:49:22.815Z,59.86
2018-04-19T07:50:22.822Z,58.80
2018-04-19T07:51:22.816Z,58.61
2018-04-19T07:52:22.808Z,58.32
2018-04-19T07:53:22.823Z,58.32
2018-04-19T07:54:22.851Z,58.51
2018-04-19T07:55:22.828Z,58.32
2018-04-19T07:56:22.823Z,58.22
2018-04-19T07:57:22.831Z,58.80
2018-04-19T07:58:22.827Z,58.51
2018-04-19T07:59:22.829Z,58.73
2018-04-19T08:00:22.846Z,58.45
2018-04-19T08:01:22.834Z,58.61
2018-04-19T08:02:22.835Z,59.12
2018-04-19T08:03:22.842Z,59.02
2018-04-19T08:04:22.852Z,58.45
2018-04-19T08:05:22.888Z,58.92
2018-04-19T08:06:22.852Z,57.68
2018-04-19T08:07:22.864Z,57.87
2018-04-19T08:08:22.855Z,57.97
2018-04-19T08:09:22.864Z,58.45
2018-04-19T08:10:22.870Z,57.10
2018-04-19T08:11:22.884Z,56.62
2018-04-19T08:12:22.890Z,56.52
2018-04-19T08:13:22.874Z,56.81
2018-04-19T08:14:22.881Z,57.68
2018-04-19T08:15:22.885Z,57.29
2018-04-19T08:16:22.883Z,58.35
2018-04-19T08:17:22.896Z,58.67
2018-04-19T08:18:22.892Z,57.22
2018-04-19T08:19:22.886Z,56.74
2018-04-19T08:20:22.891Z,58.09
2018-04-19T08:21:22.913Z,56.55
2018-04-19T08:22:22.898Z,57.22
2018-04-19T08:23:22.927Z,58.37
2018-04-19T08:24:22.916Z,57.99
2018-04-19T08:25:22.910Z,55.68
2018-04-19T08:26:22.922Z,56.93
2018-04-19T08:27:22.912Z,58.57
2018-04-19T08:28:22.944Z,57.54
2018-04-19T08:29:22.937Z,55.81
2018-04-19T08:30:22.921Z,55.81
2018-04-19T08:31:22.926Z,55.04
2018-04-19T08:32:22.931Z,54.75
2018-04-19T08:33:22.946Z,55.13
2018-04-19T08:34:22.948Z,53.88
2018-04-19T08:35:22.996Z,53.98
2018-04-19T08:36:22.946Z,54.56
2018-04-19T08:37:22.950Z,54.75
2018-04-19T08:38:22.962Z,54.36
2018-04-19T08:39:22.984Z,55.04
2018-04-19T08:40:22.957Z,55.13
2018-04-19T08:41:22.977Z,54.78
2018-04-19T08:42:22.995Z,54.87
2018-04-19T08:43:22.973Z,53.43
2018-04-19T08:44:23.011Z,53.91
2018-04-19T08:45:23.013Z,53.53
2018-04-19T08:46:23.007Z,53.72
2018-04-19T08:47:22.999Z,54.10
2018-04-19T08:48:23.029Z,53.81
2018-04-19T08:49:23.028Z,53.81
2018-04-19T08:50:23.031Z,54.00
2018-04-19T08:51:23.074Z,53.43
2018-04-19T08:52:23.030Z,54.03
2018-04-19T08:53:23.013Z,52.27
2018-04-19T08:54:23.014Z,53.17
2018-04-19T08:55:23.030Z,52.49
2018-04-19T08:56:23.076Z,53.55
2018-04-19T08:57:23.068Z,52.11
2018-04-19T08:58:23.060Z,52.87
2018-04-19T08:59:23.047Z,51.92
2018-04-19T09:00:23.037Z,52.11
2018-04-19T09:01:23.089Z,50.09
2018-04-19T09:02:23.040Z,51.05
2018-04-19T09:03:23.042Z,51.24
2018-04-19T09:04:23.051Z,50.37
2018-04-19T09:05:23.053Z,48.95
2018-04-19T09:06:23.066Z,50.57
2018-04-19T09:07:23.117Z,50.27
2018-04-19T09:08:23.078Z,49.43
2018-04-19T09:09:23.140Z,49.84
2018-04-19T09:10:23.095Z,48.97
2018-04-19T09:11:23.095Z,47.94
2018-04-19T09:12:23.137Z,48.30
2018-04-19T09:13:23.114Z,49.00
2018-04-19T09:14:23.120Z,46.76
2018-04-19T09:15:23.116Z,49.84
2018-04-19T09:16:31.827Z,50.42
2018-04-19T09:18:16.577Z,41.67
2018-04-19T09:19:25.265Z,36.19
2018-04-19T09:21:11.029Z,35.53
2018-04-19T09:22:11.007Z,35.80
2018-04-19T09:23:11.019Z,36.59
2018-04-19T09:24:11.046Z,35.52
2018-04-19T09:25:10.992Z,35.40
2018-04-19T09:26:10.975Z,37.25
2018-04-19T09:27:10.986Z,38.58
2018-04-19T09:28:11.002Z,38.49
2018-04-19T09:29:11.017Z,35.80
2018-04-19T09:30:11.008Z,33.40
2018-04-19T09:31:11.052Z,34.45
2018-04-19T09:32:11.035Z,33.89
2018-04-19T09:33:11.025Z,33.80
2018-04-19T09:34:11.092Z,33.42
2018-04-19T09:35:11.014Z,33.89
2018-04-19T09:36:11.016Z,33.98
2018-04-19T09:37:11.022Z,34.28
2018-04-19T09:38:11.058Z,32.46
2018-04-19T09:39:11.032Z,32.84
2018-04-19T09:40:11.040Z,33.04
2018-04-19T09:41:11.041Z,34.38
2018-04-19T09:42:11.047Z,35.72
2018-04-19T09:43:11.055Z,32.84
2018-04-19T09:44:11.066Z,31.88
2018-04-19T09:45:11.070Z,32.56
2018-04-19T09:46:11.108Z,32.46
2018-04-19T09:47:11.075Z,33.25
2018-04-19T09:48:11.112Z,33.14
2018-04-19T09:49:11.137Z,33.23
2018-04-19T09:50:11.111Z,33.52
2018-04-19T09:51:11.087Z,35.32
2018-04-19T09:53:34.314Z,34.48
